sensor_id;sensor_type;location;lat;lon;timestamp;temperature;humidity
11067;DHT22;29763;50.904;5.530;2022-07-04T00:01:19;14.10;99.90
11067;DHT22;29763;50.904;5.530;2022-07-04T00:03:45;14.00;99.90
11067;DHT22;29763;50.904;5.530;2022-07-04T00:06:10;14.00;99.90
11067;DHT22;29763;50.904;5.530;2022-07-04T00:08:36;14.00;99.90
11067;DHT22;29763;50.904;5.530;2022-07-04T00:11:02;13.90;99.90
11067;DHT22;29763;50.904;5.530;2022-07-04T00:13:28;13.90;99.90
11067;DHT22;29763;50.904;5.530;2022-07-04T00:15:53;13.90;99.90
11067;DHT22;29763;50.904;5.530;2022-07-04T00:18:19;13.80;99.90
11067;DHT22;29763;50.904;5.530;2022-07-04T00:20:44;13.80;99.90
11067;DHT22;29763;50.904;5.530;2022-07-04T00:23:10;13.80;99.90
11067;DHT22;29763;50.904;5.530;2022-07-04T00:25:36;13.80;99.90
11067;DHT22;29763;50.904;5.530;2022-07-04T00:28:02;13.70;99.90
11067;DHT22;29763;50.904;5.530;2022-07-04T00:30:27;13.70;99.90
11067;DHT22;29763;50.904;5.530;2022-07-04T00:32:53;13.70;99.90
11067;DHT22;29763;50.904;5.530;2022-07-04T00:35:21;13.60;99.90
11067;DHT22;29763;50.904;5.530;2022-07-04T00:37:47;13.60;99.90
11067;DHT22;29763;50.904;5.530;2022-07-04T00:40:13;13.50;99.90
11067;DHT22;29763;50.904;5.530;2022-07-04T00:42:38;13.50;99.90
11067;DHT22;29763;50.904;5.530;2022-07-04T00:45:05;13.50;99.90
11067;DHT22;29763;50.904;5.530;2022-07-04T00:47:31;13.50;99.90
11067;DHT22;29763;50.904;5.530;2022-07-04T00:49:57;13.40;99.90
11067;DHT22;29763;50.904;5.530;2022-07-04T00:52:23;13.30;99.90
11067;DHT22;29763;50.904;5.530;2022-07-04T00:54:49;13.30;99.90
11067;DHT22;29763;50.904;5.530;2022-07-04T00:57:15;13.30;99.90
11067;DHT22;29763;50.904;5.530;2022-07-04T00:59:40;13.20;99.90
11067;DHT22;29763;50.904;5.530;2022-07-04T01:02:06;13.30;99.90
11067;DHT22;29763;50.904;5.530;2022-07-04T01:04:35;13.20;99.90
11067;DHT22;29763;50.904;5.530;2022-07-04T01:07:02;13.20;99.90
11067;DHT22;29763;50.904;5.530;2022-07-04T01:09:29;13.10;99.90
11067;DHT22;29763;50.904;5.530;2022-07-04T01:11:55;13.10;99.90
11067;DHT22;29763;50.904;5.530;2022-07-04T01:14:20;13.00;99.90
11067;DHT22;29763;50.904;5.530;2022-07-04T01:16:46;13.00;99.90
11067;DHT22;29763;50.904;5.530;2022-07-04T01:19:12;13.00;99.90
11067;DHT22;29763;50.904;5.530;2022-07-04T01:21:38;13.00;99.90
11067;DHT22;29763;50.904;5.530;2022-07-04T01:24:04;12.90;99.90
11067;DHT22;29763;50.904;5.530;2022-07-04T01:26:30;12.90;99.90
11067;DHT22;29763;50.904;5.530;2022-07-04T01:28:56;12.90;99.90
11067;DHT22;29763;50.904;5.530;2022-07-04T01:31:21;12.90;99.90
11067;DHT22;29763;50.904;5.530;2022-07-04T01:33:47;12.80;99.90
11067;DHT22;29763;50.904;5.530;2022-07-04T01:36:13;12.80;99.90
11067;DHT22;29763;50.904;5.530;2022-07-04T01:38:39;12.70;99.90
11067;DHT22;29763;50.904;5.530;2022-07-04T01:41:04;12.70;99.90
11067;DHT22;29763;50.904;5.530;2022-07-04T01:43:30;12.60;99.90
11067;DHT22;29763;50.904;5.530;2022-07-04T01:45:56;12.60;99.90
11067;DHT22;29763;50.904;5.530;2022-07-04T01:48:21;12.60;99.90
11067;DHT22;29763;50.904;5.530;2022-07-04T01:50:47;12.60;99.90
11067;DHT22;29763;50.904;5.530;2022-07-04T01:53:13;12.50;99.90
11067;DHT22;29763;50.904;5.530;2022-07-04T01:55:39;12.50;99.90
11067;DHT22;29763;50.904;5.530;2022-07-04T01:58:07;12.40;99.90
11067;DHT22;29763;50.904;5.530;2022-07-04T02:00:32;12.40;99.90
11067;DHT22;29763;50.904;5.530;2022-07-04T02:03:17;12.40;99.90
11067;DHT22;29763;50.904;5.530;2022-07-04T02:05:43;12.40;99.90
11067;DHT22;29763;50.904;5.530;2022-07-04T02:08:09;12.40;99.90
11067;DHT22;29763;50.904;5.530;2022-07-04T02:10:35;12.30;99.90
11067;DHT22;29763;50.904;5.530;2022-07-04T02:13:01;12.30;99.90
11067;DHT22;29763;50.904;5.530;2022-07-04T02:17:56;12.30;99.90
11067;DHT22;29763;50.904;5.530;2022-07-04T02:20:23;12.20;99.90
11067;DHT22;29763;50.904;5.530;2022-07-04T02:22:48;12.20;99.90
11067;DHT22;29763;50.904;5.530;2022-07-04T02:25:14;12.20;99.90
11067;DHT22;29763;50.904;5.530;2022-07-04T02:27:40;12.20;99.90
11067;DHT22;29763;50.904;5.530;2022-07-04T02:30:07;12.20;99.90
11067;DHT22;29763;50.904;5.530;2022-07-04T02:32:32;12.20;99.90
11067;DHT22;29763;50.904;5.530;2022-07-04T02:34:58;12.20;99.90
11067;DHT22;29763;50.904;5.530;2022-07-04T02:37:24;12.10;99.90
11067;DHT22;29763;50.904;5.530;2022-07-04T02:39:50;12.10;99.90
11067;DHT22;29763;50.904;5.530;2022-07-04T02:42:15;12.00;99.90
11067;DHT22;29763;50.904;5.530;2022-07-04T02:44:41;12.00;99.90
11067;DHT22;29763;50.904;5.530;2022-07-04T02:47:08;12.00;99.90
11067;DHT22;29763;50.904;5.530;2022-07-04T02:49:34;12.00;99.90
11067;DHT22;29763;50.904;5.530;2022-07-04T02:52:00;11.90;99.90
11067;DHT22;29763;50.904;5.530;2022-07-04T02:54:25;12.00;99.90
11067;DHT22;29763;50.904;5.530;2022-07-04T02:56:51;11.80;99.90
11067;DHT22;29763;50.904;5.530;2022-07-04T02:59:17;11.80;99.90
11067;DHT22;29763;50.904;5.530;2022-07-04T03:01:42;11.70;99.90
11067;DHT22;29763;50.904;5.530;2022-07-04T03:04:08;11.60;99.90
11067;DHT22;29763;50.904;5.530;2022-07-04T03:06:34;11.60;99.90
11067;DHT22;29763;50.904;5.530;2022-07-04T03:08:59;11.50;99.90
11067;DHT22;29763;50.904;5.530;2022-07-04T03:11:25;11.60;99.90
11067;DHT22;29763;50.904;5.530;2022-07-04T03:13:51;11.60;99.90
11067;DHT22;29763;50.904;5.530;2022-07-04T03:16:17;11.60;99.90
11067;DHT22;29763;50.904;5.530;2022-07-04T03:18:43;11.60;99.90
11067;DHT22;29763;50.904;5.530;2022-07-04T03:21:08;11.60;99.90
11067;DHT22;29763;50.904;5.530;2022-07-04T03:23:34;11.60;99.90
11067;DHT22;29763;50.904;5.530;2022-07-04T03:26:00;11.60;99.90
11067;DHT22;29763;50.904;5.530;2022-07-04T03:28:26;11.60;99.90
11067;DHT22;29763;50.904;5.530;2022-07-04T03:30:52;11.60;99.90
11067;DHT22;29763;50.904;5.530;2022-07-04T03:33:19;11.60;99.90
11067;DHT22;29763;50.904;5.530;2022-07-04T03:35:45;11.60;99.90
11067;DHT22;29763;50.904;5.530;2022-07-04T03:38:11;11.60;99.90
11067;DHT22;29763;50.904;5.530;2022-07-04T03:40:36;11.50;99.90
11067;DHT22;29763;50.904;5.530;2022-07-04T03:43:04;11.50;99.90
11067;DHT22;29763;50.904;5.530;2022-07-04T03:45:31;11.50;99.90
11067;DHT22;29763;50.904;5.530;2022-07-04T03:47:57;11.50;99.90
11067;DHT22;29763;50.904;5.530;2022-07-04T03:50:23;11.50;99.90
11067;DHT22;29763;50.904;5.530;2022-07-04T03:52:49;11.50;99.90
11067;DHT22;29763;50.904;5.530;2022-07-04T03:55:14;11.60;99.90
11067;DHT22;29763;50.904;5.530;2022-07-04T03:57:40;11.50;99.90
11067;DHT22;29763;50.904;5.530;2022-07-04T04:00:06;11.50;99.90
11067;DHT22;29763;50.904;5.530;2022-07-04T04:02:33;11.40;99.90
11067;DHT22;29763;50.904;5.530;2022-07-04T04:04:59;11.40;99.90
11067;DHT22;29763;50.904;5.530;2022-07-04T04:07:43;11.40;99.90
11067;DHT22;29763;50.904;5.530;2022-07-04T04:10:09;11.50;99.90
11067;DHT22;29763;50.904;5.530;2022-07-04T04:12:35;11.50;99.90
11067;DHT22;29763;50.904;5.530;2022-07-04T04:15:01;11.50;99.90
11067;DHT22;29763;50.904;5.530;2022-07-04T04:17:26;11.50;99.90
11067;DHT22;29763;50.904;5.530;2022-07-04T04:19:52;11.60;99.90
11067;DHT22;29763;50.904;5.530;2022-07-04T04:22:18;11.60;99.90
11067;DHT22;29763;50.904;5.530;2022-07-04T04:24:44;11.60;99.90
11067;DHT22;29763;50.904;5.530;2022-07-04T04:27:10;11.60;99.90
11067;DHT22;29763;50.904;5.530;2022-07-04T04:29:35;11.70;99.90
11067;DHT22;29763;50.904;5.530;2022-07-04T04:32:01;11.70;99.90
11067;DHT22;29763;50.904;5.530;2022-07-04T04:34:27;11.70;99.90
11067;DHT22;29763;50.904;5.530;2022-07-04T04:36:53;11.80;99.90
11067;DHT22;29763;50.904;5.530;2022-07-04T04:39:18;11.80;99.90
11067;DHT22;29763;50.904;5.530;2022-07-04T04:41:44;11.90;99.90
11067;DHT22;29763;50.904;5.530;2022-07-04T04:44:09;11.90;99.90
11067;DHT22;29763;50.904;5.530;2022-07-04T04:46:35;12.00;99.90
11067;DHT22;29763;50.904;5.530;2022-07-04T04:49:01;12.00;99.90
11067;DHT22;29763;50.904;5.530;2022-07-04T04:51:26;12.00;99.90
11067;DHT22;29763;50.904;5.530;2022-07-04T04:53:53;12.20;99.90
11067;DHT22;29763;50.904;5.530;2022-07-04T04:56:18;12.30;99.90
11067;DHT22;29763;50.904;5.530;2022-07-04T04:58:45;12.50;99.90
11067;DHT22;29763;50.904;5.530;2022-07-04T05:01:10;12.70;99.90
11067;DHT22;29763;50.904;5.530;2022-07-04T05:03:36;12.90;99.90
11067;DHT22;29763;50.904;5.530;2022-07-04T05:06:04;13.10;99.90
11067;DHT22;29763;50.904;5.530;2022-07-04T05:08:30;13.40;99.90
11067;DHT22;29763;50.904;5.530;2022-07-04T05:10:56;13.60;99.90
11067;DHT22;29763;50.904;5.530;2022-07-04T05:13:21;13.90;99.90
11067;DHT22;29763;50.904;5.530;2022-07-04T05:15:47;14.10;99.90
11067;DHT22;29763;50.904;5.530;2022-07-04T05:18:13;14.30;99.90
11067;DHT22;29763;50.904;5.530;2022-07-04T05:20:39;14.50;99.90
11067;DHT22;29763;50.904;5.530;2022-07-04T05:23:05;14.60;99.90
11067;DHT22;29763;50.904;5.530;2022-07-04T05:25:37;14.80;99.90
11067;DHT22;29763;50.904;5.530;2022-07-04T05:28:02;15.00;99.90
11067;DHT22;29763;50.904;5.530;2022-07-04T05:30:28;15.10;99.90
11067;DHT22;29763;50.904;5.530;2022-07-04T05:32:54;15.30;99.90
11067;DHT22;29763;50.904;5.530;2022-07-04T05:35:20;15.60;99.90
11067;DHT22;29763;50.904;5.530;2022-07-04T05:37:45;15.80;99.90
11067;DHT22;29763;50.904;5.530;2022-07-04T05:40:11;16.00;99.90
11067;DHT22;29763;50.904;5.530;2022-07-04T05:42:37;16.30;99.90
11067;DHT22;29763;50.904;5.530;2022-07-04T05:45:04;16.50;99.90
11067;DHT22;29763;50.904;5.530;2022-07-04T05:47:32;16.90;99.90
11067;DHT22;29763;50.904;5.530;2022-07-04T05:49:57;17.10;99.90
11067;DHT22;29763;50.904;5.530;2022-07-04T05:52:25;17.30;99.90
11067;DHT22;29763;50.904;5.530;2022-07-04T05:54:51;17.60;99.90
11067;DHT22;29763;50.904;5.530;2022-07-04T05:57:17;17.80;99.90
11067;DHT22;29763;50.904;5.530;2022-07-04T05:59:42;18.10;99.90
11067;DHT22;29763;50.904;5.530;2022-07-04T06:02:10;18.30;99.90
11067;DHT22;29763;50.904;5.530;2022-07-04T06:04:36;18.50;99.90
11067;DHT22;29763;50.904;5.530;2022-07-04T06:07:02;18.70;99.90
11067;DHT22;29763;50.904;5.530;2022-07-04T06:09:27;18.90;99.90
11067;DHT22;29763;50.904;5.530;2022-07-04T06:11:53;19.20;99.90
11067;DHT22;29763;50.904;5.530;2022-07-04T06:14:19;19.50;99.90
11067;DHT22;29763;50.904;5.530;2022-07-04T06:16:45;19.90;99.90
11067;DHT22;29763;50.904;5.530;2022-07-04T06:19:10;20.20;99.90
11067;DHT22;29763;50.904;5.530;2022-07-04T06:21:36;20.40;99.90
11067;DHT22;29763;50.904;5.530;2022-07-04T06:24:02;20.60;99.90
11067;DHT22;29763;50.904;5.530;2022-07-04T06:26:28;20.90;99.90
11067;DHT22;29763;50.904;5.530;2022-07-04T06:28:55;21.10;99.90
11067;DHT22;29763;50.904;5.530;2022-07-04T06:31:22;21.30;99.90
11067;DHT22;29763;50.904;5.530;2022-07-04T06:33:48;21.60;99.90
11067;DHT22;29763;50.904;5.530;2022-07-04T06:36:32;21.90;99.90
11067;DHT22;29763;50.904;5.530;2022-07-04T06:38:59;22.10;99.90
11067;DHT22;29763;50.904;5.530;2022-07-04T06:41:25;22.20;99.90
11067;DHT22;29763;50.904;5.530;2022-07-04T06:43:50;22.30;99.90
11067;DHT22;29763;50.904;5.530;2022-07-04T06:46:16;22.40;99.90
11067;DHT22;29763;50.904;5.530;2022-07-04T06:48:42;22.60;99.90
11067;DHT22;29763;50.904;5.530;2022-07-04T06:51:08;22.50;99.90
11067;DHT22;29763;50.904;5.530;2022-07-04T06:53:34;22.40;99.90
11067;DHT22;29763;50.904;5.530;2022-07-04T06:56:00;22.60;99.90
11067;DHT22;29763;50.904;5.530;2022-07-04T06:58:25;22.80;99.90
11067;DHT22;29763;50.904;5.530;2022-07-04T07:00:51;23.00;99.90
11067;DHT22;29763;50.904;5.530;2022-07-04T07:03:17;23.30;99.90
11067;DHT22;29763;50.904;5.530;2022-07-04T07:05:43;23.50;99.90
11067;DHT22;29763;50.904;5.530;2022-07-04T07:08:08;23.70;99.90
11067;DHT22;29763;50.904;5.530;2022-07-04T07:10:34;23.90;99.90
11067;DHT22;29763;50.904;5.530;2022-07-04T07:13:02;24.30;99.90
11067;DHT22;29763;50.904;5.530;2022-07-04T07:15:28;24.40;99.90
11067;DHT22;29763;50.904;5.530;2022-07-04T07:17:53;24.60;99.90
11067;DHT22;29763;50.904;5.530;2022-07-04T07:20:19;24.60;99.90
11067;DHT22;29763;50.904;5.530;2022-07-04T07:22:45;24.60;99.90
11067;DHT22;29763;50.904;5.530;2022-07-04T07:25:11;24.60;99.90
11067;DHT22;29763;50.904;5.530;2022-07-04T07:27:38;25.10;99.90
11067;DHT22;29763;50.904;5.530;2022-07-04T07:30:05;25.30;99.90
11067;DHT22;29763;50.904;5.530;2022-07-04T07:32:31;25.50;99.90
11067;DHT22;29763;50.904;5.530;2022-07-04T07:34:57;25.60;99.90
11067;DHT22;29763;50.904;5.530;2022-07-04T07:37:23;25.50;99.90
11067;DHT22;29763;50.904;5.530;2022-07-04T07:39:49;25.90;99.90
11067;DHT22;29763;50.904;5.530;2022-07-04T07:42:16;26.40;99.90
11067;DHT22;29763;50.904;5.530;2022-07-04T07:44:42;26.60;99.90
11067;DHT22;29763;50.904;5.530;2022-07-04T07:47:12;26.70;99.90
11067;DHT22;29763;50.904;5.530;2022-07-04T07:49:38;26.70;99.90
11067;DHT22;29763;50.904;5.530;2022-07-04T07:52:04;27.00;99.90
11067;DHT22;29763;50.904;5.530;2022-07-04T07:54:29;26.80;99.90
11067;DHT22;29763;50.904;5.530;2022-07-04T07:56:55;26.70;99.90
11067;DHT22;29763;50.904;5.530;2022-07-04T07:59:21;27.00;99.90
11067;DHT22;29763;50.904;5.530;2022-07-04T08:01:46;27.30;99.90
11067;DHT22;29763;50.904;5.530;2022-07-04T08:04:12;27.50;99.70
11067;DHT22;29763;50.904;5.530;2022-07-04T08:06:56;27.70;98.90
11067;DHT22;29763;50.904;5.530;2022-07-04T08:09:22;28.20;98.80
11067;DHT22;29763;50.904;5.530;2022-07-04T08:11:48;28.10;98.10
11067;DHT22;29763;50.904;5.530;2022-07-04T08:14:13;27.80;99.10
11067;DHT22;29763;50.904;5.530;2022-07-04T08:16:39;27.70;98.50
11067;DHT22;29763;50.904;5.530;2022-07-04T08:19:06;28.00;98.40
11067;DHT22;29763;50.904;5.530;2022-07-04T08:21:32;28.20;98.20
11067;DHT22;29763;50.904;5.530;2022-07-04T08:23:57;28.60;97.90
11067;DHT22;29763;50.904;5.530;2022-07-04T08:26:26;28.50;97.00
11067;DHT22;29763;50.904;5.530;2022-07-04T08:28:52;28.60;97.40
11067;DHT22;29763;50.904;5.530;2022-07-04T08:31:20;28.60;97.00
11067;DHT22;29763;50.904;5.530;2022-07-04T08:33:46;28.60;96.00
11067;DHT22;29763;50.904;5.530;2022-07-04T08:36:13;28.50;96.30
11067;DHT22;29763;50.904;5.530;2022-07-04T08:38:38;28.50;96.50
11067;DHT22;29763;50.904;5.530;2022-07-04T08:41:04;29.00;96.50
11067;DHT22;29763;50.904;5.530;2022-07-04T08:43:31;29.20;95.90
11067;DHT22;29763;50.904;5.530;2022-07-04T08:45:59;29.10;95.50
11067;DHT22;29763;50.904;5.530;2022-07-04T08:48:28;29.00;95.60
11067;DHT22;29763;50.904;5.530;2022-07-04T08:50:57;29.00;94.80
11067;DHT22;29763;50.904;5.530;2022-07-04T08:53:28;28.90;95.60
11067;DHT22;29763;50.904;5.530;2022-07-04T08:55:56;29.30;94.90
11067;DHT22;29763;50.904;5.530;2022-07-04T08:58:42;29.60;94.50
11067;DHT22;29763;50.904;5.530;2022-07-04T09:01:10;30.10;94.50
11067;DHT22;29763;50.904;5.530;2022-07-04T09:03:48;30.40;94.00
11067;DHT22;29763;50.904;5.530;2022-07-04T09:06:18;30.80;93.40
11067;DHT22;29763;50.904;5.530;2022-07-04T09:08:44;31.00;92.60
11067;DHT22;29763;50.904;5.530;2022-07-04T09:11:10;30.90;92.60
11067;DHT22;29763;50.904;5.530;2022-07-04T09:13:40;31.20;92.70
11067;DHT22;29763;50.904;5.530;2022-07-04T09:16:05;30.70;90.80
11067;DHT22;29763;50.904;5.530;2022-07-04T09:18:33;30.50;91.30
11067;DHT22;29763;50.904;5.530;2022-07-04T09:21:01;30.20;91.60
11067;DHT22;29763;50.904;5.530;2022-07-04T09:23:29;30.10;91.40
11067;DHT22;29763;50.904;5.530;2022-07-04T09:28:42;30.10;90.90
11067;DHT22;29763;50.904;5.530;2022-07-04T09:31:22;30.10;91.00
11067;DHT22;29763;50.904;5.530;2022-07-04T09:33:53;30.10;91.60
11067;DHT22;29763;50.904;5.530;2022-07-04T09:36:22;30.40;90.70
11067;DHT22;29763;50.904;5.530;2022-07-04T09:44:16;30.80;89.60
11067;DHT22;29763;50.904;5.530;2022-07-04T09:46:43;30.90;88.50
11067;DHT22;29763;50.904;5.530;2022-07-04T09:49:10;31.30;88.20
11067;DHT22;29763;50.904;5.530;2022-07-04T09:51:41;31.80;88.60
11067;DHT22;29763;50.904;5.530;2022-07-04T09:54:20;32.00;87.60
11067;DHT22;29763;50.904;5.530;2022-07-04T09:56:49;32.10;86.80
11067;DHT22;29763;50.904;5.530;2022-07-04T09:59:17;32.10;87.00
11067;DHT22;29763;50.904;5.530;2022-07-04T10:01:42;32.50;87.10
11067;DHT22;29763;50.904;5.530;2022-07-04T10:04:09;32.20;83.50
11067;DHT22;29763;50.904;5.530;2022-07-04T10:06:38;31.60;85.20
11067;DHT22;29763;50.904;5.530;2022-07-04T10:09:15;31.40;82.90
11067;DHT22;29763;50.904;5.530;2022-07-04T10:11:43;31.90;85.30
11067;DHT22;29763;50.904;5.530;2022-07-04T10:14:11;32.50;84.10
11067;DHT22;29763;50.904;5.530;2022-07-04T10:16:38;32.90;82.70
11067;DHT22;29763;50.904;5.530;2022-07-04T10:19:05;32.80;81.10
11067;DHT22;29763;50.904;5.530;2022-07-04T10:21:32;32.80;80.50
11067;DHT22;29763;50.904;5.530;2022-07-04T10:23:59;33.00;79.40
11067;DHT22;29763;50.904;5.530;2022-07-04T10:26:26;33.00;78.60
11067;DHT22;29763;50.904;5.530;2022-07-04T10:28:52;33.30;79.70
11067;DHT22;29763;50.904;5.530;2022-07-04T10:31:24;33.50;80.40
11067;DHT22;29763;50.904;5.530;2022-07-04T10:33:51;33.30;78.00
11067;DHT22;29763;50.904;5.530;2022-07-04T10:36:22;32.80;78.80
11067;DHT22;29763;50.904;5.530;2022-07-04T10:38:59;32.70;78.60
11067;DHT22;29763;50.904;5.530;2022-07-04T10:41:30;32.80;79.50
11067;DHT22;29763;50.904;5.530;2022-07-04T10:49:05;33.10;79.20
11067;DHT22;29763;50.904;5.530;2022-07-04T10:54:07;33.70;77.80
11067;DHT22;29763;50.904;5.530;2022-07-04T10:56:49;33.70;76.70
11067;DHT22;29763;50.904;5.530;2022-07-04T10:59:19;33.80;76.20
11067;DHT22;29763;50.904;5.530;2022-07-04T11:04:46;33.60;71.40
11067;DHT22;29763;50.904;5.530;2022-07-04T11:07:19;33.30;73.00
11067;DHT22;29763;50.904;5.530;2022-07-04T11:09:45;33.10;74.50
11067;DHT22;29763;50.904;5.530;2022-07-04T11:12:11;33.30;74.80
11067;DHT22;29763;50.904;5.530;2022-07-04T11:14:44;33.50;74.50
11067;DHT22;29763;50.904;5.530;2022-07-04T11:17:14;33.40;74.30
11067;DHT22;29763;50.904;5.530;2022-07-04T11:19:41;33.60;76.00
11067;DHT22;29763;50.904;5.530;2022-07-04T11:22:09;34.00;74.40
11067;DHT22;29763;50.904;5.530;2022-07-04T11:24:40;33.50;74.30
11067;DHT22;29763;50.904;5.530;2022-07-04T11:27:07;32.80;74.40
11067;DHT22;29763;50.904;5.530;2022-07-04T11:29:36;32.70;76.50
11067;DHT22;29763;50.904;5.530;2022-07-04T11:32:02;32.90;74.40
11067;DHT22;29763;50.904;5.530;2022-07-04T11:34:32;32.70;75.70
11067;DHT22;29763;50.904;5.530;2022-07-04T11:36:58;32.60;74.20
11067;DHT22;29763;50.904;5.530;2022-07-04T11:39:26;32.30;74.90
11067;DHT22;29763;50.904;5.530;2022-07-04T11:41:53;32.20;75.80
11067;DHT22;29763;50.904;5.530;2022-07-04T11:44:39;32.70;75.60
11067;DHT22;29763;50.904;5.530;2022-07-04T11:47:40;33.30;73.70
11067;DHT22;29763;50.904;5.530;2022-07-04T11:50:12;33.60;72.00
11067;DHT22;29763;50.904;5.530;2022-07-04T11:52:49;33.70;71.90
11067;DHT22;29763;50.904;5.530;2022-07-04T11:55:19;34.30;70.50
11067;DHT22;29763;50.904;5.530;2022-07-04T11:57:51;34.60;68.10
11067;DHT22;29763;50.904;5.530;2022-07-04T12:00:25;34.40;67.60
11067;DHT22;29763;50.904;5.530;2022-07-04T12:02:50;33.40;69.40
11067;DHT22;29763;50.904;5.530;2022-07-04T12:05:17;32.70;72.80
11067;DHT22;29763;50.904;5.530;2022-07-04T12:07:45;32.60;75.00
11067;DHT22;29763;50.904;5.530;2022-07-04T12:10:17;32.20;73.40
11067;DHT22;29763;50.904;5.530;2022-07-04T12:13:03;32.10;73.80
11067;DHT22;29763;50.904;5.530;2022-07-04T12:18:24;32.20;73.70
11067;DHT22;29763;50.904;5.530;2022-07-04T12:20:52;32.70;71.50
11067;DHT22;29763;50.904;5.530;2022-07-04T12:23:19;32.70;69.60
11067;DHT22;29763;50.904;5.530;2022-07-04T12:25:48;33.00;71.10
11067;DHT22;29763;50.904;5.530;2022-07-04T12:28:15;33.40;69.80
11067;DHT22;29763;50.904;5.530;2022-07-04T12:30:53;33.70;69.00
11067;DHT22;29763;50.904;5.530;2022-07-04T12:33:21;32.70;68.50
11067;DHT22;29763;50.904;5.530;2022-07-04T12:35:52;32.20;68.30
11067;DHT22;29763;50.904;5.530;2022-07-04T12:38:32;31.70;70.70
11067;DHT22;29763;50.904;5.530;2022-07-04T12:41:12;31.40;72.00
11067;DHT22;29763;50.904;5.530;2022-07-04T12:48:52;31.10;72.00
11067;DHT22;29763;50.904;5.530;2022-07-04T12:51:21;30.80;75.00
11067;DHT22;29763;50.904;5.530;2022-07-04T12:53:49;31.20;75.60
11067;DHT22;29763;50.904;5.530;2022-07-04T12:56:32;31.60;74.50
11067;DHT22;29763;50.904;5.530;2022-07-04T12:59:02;31.40;71.70
11067;DHT22;29763;50.904;5.530;2022-07-04T13:01:28;30.90;72.80
11067;DHT22;29763;50.904;5.530;2022-07-04T13:03:54;30.50;72.50
11067;DHT22;29763;50.904;5.530;2022-07-04T13:06:20;30.80;73.90
11067;DHT22;29763;50.904;5.530;2022-07-04T13:08:46;31.00;71.50
11067;DHT22;29763;50.904;5.530;2022-07-04T13:11:12;30.50;72.60
11067;DHT22;29763;50.904;5.530;2022-07-04T13:13:56;29.90;72.50
11067;DHT22;29763;50.904;5.530;2022-07-04T13:16:24;29.90;75.00
11067;DHT22;29763;50.904;5.530;2022-07-04T13:18:50;30.70;77.20
11067;DHT22;29763;50.904;5.530;2022-07-04T13:21:16;31.50;73.70
11067;DHT22;29763;50.904;5.530;2022-07-04T13:23:42;31.90;69.40
11067;DHT22;29763;50.904;5.530;2022-07-04T13:26:08;32.60;70.00
11067;DHT22;29763;50.904;5.530;2022-07-04T13:28:33;32.50;68.00
11067;DHT22;29763;50.904;5.530;2022-07-04T13:30:59;32.80;68.80
11067;DHT22;29763;50.904;5.530;2022-07-04T13:33:27;32.90;70.10
11067;DHT22;29763;50.904;5.530;2022-07-04T13:35:53;32.60;68.30
11067;DHT22;29763;50.904;5.530;2022-07-04T13:38:19;31.80;68.40
11067;DHT22;29763;50.904;5.530;2022-07-04T13:40:45;31.20;70.10
11067;DHT22;29763;50.904;5.530;2022-07-04T13:43:12;31.00;71.00
11067;DHT22;29763;50.904;5.530;2022-07-04T13:45:41;31.40;70.70
11067;DHT22;29763;50.904;5.530;2022-07-04T13:48:12;31.70;72.00
11067;DHT22;29763;50.904;5.530;2022-07-04T13:50:38;32.30;71.50
11067;DHT22;29763;50.904;5.530;2022-07-04T13:53:05;33.00;71.90
11067;DHT22;29763;50.904;5.530;2022-07-04T13:55:32;33.40;69.30
11067;DHT22;29763;50.904;5.530;2022-07-04T13:58:02;33.90;71.10
11067;DHT22;29763;50.904;5.530;2022-07-04T14:00:28;34.10;69.40
11067;DHT22;29763;50.904;5.530;2022-07-04T14:02:54;33.60;67.50
11067;DHT22;29763;50.904;5.530;2022-07-04T14:05:20;33.00;68.50
11067;DHT22;29763;50.904;5.530;2022-07-04T14:07:46;33.30;69.50
11067;DHT22;29763;50.904;5.530;2022-07-04T14:10:12;33.10;67.10
11067;DHT22;29763;50.904;5.530;2022-07-04T14:12:38;33.30;67.60
11067;DHT22;29763;50.904;5.530;2022-07-04T14:15:05;33.50;68.40
11067;DHT22;29763;50.904;5.530;2022-07-04T14:17:31;33.40;66.80
11067;DHT22;29763;50.904;5.530;2022-07-04T14:19:57;33.50;67.90
11067;DHT22;29763;50.904;5.530;2022-07-04T14:22:23;33.50;67.90
11067;DHT22;29763;50.904;5.530;2022-07-04T14:24:48;33.20;67.20
11067;DHT22;29763;50.904;5.530;2022-07-04T14:27:14;33.10;68.00
11067;DHT22;29763;50.904;5.530;2022-07-04T14:29:40;33.50;68.80
11067;DHT22;29763;50.904;5.530;2022-07-04T14:32:07;33.30;67.30
11067;DHT22;29763;50.904;5.530;2022-07-04T14:34:33;33.40;68.10
11067;DHT22;29763;50.904;5.530;2022-07-04T14:36:58;33.30;67.60
11067;DHT22;29763;50.904;5.530;2022-07-04T14:39:24;33.50;68.20
11067;DHT22;29763;50.904;5.530;2022-07-04T14:41:50;33.20;67.30
11067;DHT22;29763;50.904;5.530;2022-07-04T14:44:16;33.30;68.30
11067;DHT22;29763;50.904;5.530;2022-07-04T14:46:42;33.30;70.60
11067;DHT22;29763;50.904;5.530;2022-07-04T14:49:08;33.40;69.10
11067;DHT22;29763;50.904;5.530;2022-07-04T14:51:34;33.00;67.40
11067;DHT22;29763;50.904;5.530;2022-07-04T14:53:59;32.60;67.60
11067;DHT22;29763;50.904;5.530;2022-07-04T14:56:25;32.20;68.30
11067;DHT22;29763;50.904;5.530;2022-07-04T14:58:51;31.80;70.50
11067;DHT22;29763;50.904;5.530;2022-07-04T15:01:16;31.80;72.50
11067;DHT22;29763;50.904;5.530;2022-07-04T15:03:42;31.90;68.80
11067;DHT22;29763;50.904;5.530;2022-07-04T15:06:08;31.70;68.30
11067;DHT22;29763;50.904;5.530;2022-07-04T15:08:34;31.70;68.70
11067;DHT22;29763;50.904;5.530;2022-07-04T15:10:59;31.80;68.20
11067;DHT22;29763;50.904;5.530;2022-07-04T15:13:25;32.20;69.20
11067;DHT22;29763;50.904;5.530;2022-07-04T15:15:51;32.40;68.60
11067;DHT22;29763;50.904;5.530;2022-07-04T15:18:16;32.20;66.30
11067;DHT22;29763;50.904;5.530;2022-07-04T15:20:42;32.20;67.50
11067;DHT22;29763;50.904;5.530;2022-07-04T15:23:26;32.20;67.70
11067;DHT22;29763;50.904;5.530;2022-07-04T15:26:10;32.30;68.40
11067;DHT22;29763;50.904;5.530;2022-07-04T15:28:36;32.50;70.00
11067;DHT22;29763;50.904;5.530;2022-07-04T15:31:02;32.70;67.60
11067;DHT22;29763;50.904;5.530;2022-07-04T15:33:28;32.40;66.10
11067;DHT22;29763;50.904;5.530;2022-07-04T15:35:56;32.20;67.90
11067;DHT22;29763;50.904;5.530;2022-07-04T15:38:22;31.90;66.80
11067;DHT22;29763;50.904;5.530;2022-07-04T15:40:48;31.70;67.40
11067;DHT22;29763;50.904;5.530;2022-07-04T15:43:14;31.60;66.50
11067;DHT22;29763;50.904;5.530;2022-07-04T15:45:40;31.80;66.80
11067;DHT22;29763;50.904;5.530;2022-07-04T15:48:06;31.90;66.50
11067;DHT22;29763;50.904;5.530;2022-07-04T15:50:32;32.00;65.40
11067;DHT22;29763;50.904;5.530;2022-07-04T15:52:58;32.00;66.30
11067;DHT22;29763;50.904;5.530;2022-07-04T15:55:24;32.20;66.20
11067;DHT22;29763;50.904;5.530;2022-07-04T15:57:52;31.70;66.20
11067;DHT22;29763;50.904;5.530;2022-07-04T16:00:18;31.50;67.30